sensor_id;sensor_type;location;lat;lon;timestamp;temperature;humidity
11536;DHT22;5824;49.336;8.652;2023-06-14T00:00:38;21.60;1.00
11536;DHT22;5824;49.336;8.652;2023-06-14T00:03:09;21.60;1.00
11536;DHT22;5824;49.336;8.652;2023-06-14T00:05:37;21.60;1.00
11536;DHT22;5824;49.336;8.652;2023-06-14T00:08:09;21.60;1.00
11536;DHT22;5824;49.336;8.652;2023-06-14T00:10:38;21.60;1.00
11536;DHT22;5824;49.336;8.652;2023-06-14T00:13:06;21.60;1.00
11536;DHT22;5824;49.336;8.652;2023-06-14T00:15:32;21.60;1.00
11536;DHT22;5824;49.336;8.652;2023-06-14T00:17:58;21.60;1.00
11536;DHT22;5824;49.336;8.652;2023-06-14T00:20:27;21.50;1.00
11536;DHT22;5824;49.336;8.652;2023-06-14T00:22:54;21.50;1.00
11536;DHT22;5824;49.336;8.652;2023-06-14T00:25:22;21.50;1.00
11536;DHT22;5824;49.336;8.652;2023-06-14T00:27:48;21.50;1.00
11536;DHT22;5824;49.336;8.652;2023-06-14T00:30:14;21.50;1.00
11536;DHT22;5824;49.336;8.652;2023-06-14T00:32:40;22.60;1.00
11536;DHT22;5824;49.336;8.652;2023-06-14T00:35:05;21.40;1.00
11536;DHT22;5824;49.336;8.652;2023-06-14T00:37:33;21.40;1.00
11536;DHT22;5824;49.336;8.652;2023-06-14T00:39:58;21.40;1.00
11536;DHT22;5824;49.336;8.652;2023-06-14T00:42:25;21.40;1.00
11536;DHT22;5824;49.336;8.652;2023-06-14T00:44:51;21.40;1.00
11536;DHT22;5824;49.336;8.652;2023-06-14T00:47:16;21.60;1.00
11536;DHT22;5824;49.336;8.652;2023-06-14T00:49:42;21.40;1.00
11536;DHT22;5824;49.336;8.652;2023-06-14T00:52:07;21.40;1.00
11536;DHT22;5824;49.336;8.652;2023-06-14T00:54:37;21.40;1.00
11536;DHT22;5824;49.336;8.652;2023-06-14T00:57:03;21.40;1.00
11536;DHT22;5824;49.336;8.652;2023-06-14T00:59:28;21.40;1.00
11536;DHT22;5824;49.336;8.652;2023-06-14T01:01:54;21.30;1.00
11536;DHT22;5824;49.336;8.652;2023-06-14T01:04:20;21.40;1.00
11536;DHT22;5824;49.336;8.652;2023-06-14T01:09:33;21.30;1.00
11536;DHT22;5824;49.336;8.652;2023-06-14T01:12:15;21.30;1.00
11536;DHT22;5824;49.336;8.652;2023-06-14T01:14:42;21.30;1.00
11536;DHT22;5824;49.336;8.652;2023-06-14T01:17:09;21.30;1.00
11536;DHT22;5824;49.336;8.652;2023-06-14T01:19:43;21.20;1.00
11536;DHT22;5824;49.336;8.652;2023-06-14T01:22:10;21.20;1.00
11536;DHT22;5824;49.336;8.652;2023-06-14T01:24:36;21.20;1.00
11536;DHT22;5824;49.336;8.652;2023-06-14T01:27:02;21.20;1.00
11536;DHT22;5824;49.336;8.652;2023-06-14T01:29:29;21.20;1.00
11536;DHT22;5824;49.336;8.652;2023-06-14T01:32:01;21.20;1.00
11536;DHT22;5824;49.336;8.652;2023-06-14T01:34:27;21.10;1.00
11536;DHT22;5824;49.336;8.652;2023-06-14T01:36:53;21.10;1.00
11536;DHT22;5824;49.336;8.652;2023-06-14T01:39:23;21.10;1.00
11536;DHT22;5824;49.336;8.652;2023-06-14T01:41:50;21.10;1.00
11536;DHT22;5824;49.336;8.652;2023-06-14T01:44:17;21.10;1.00
11536;DHT22;5824;49.336;8.652;2023-06-14T01:46:44;21.10;1.00
11536;DHT22;5824;49.336;8.652;2023-06-14T01:49:11;21.10;1.00
11536;DHT22;5824;49.336;8.652;2023-06-14T01:51:36;21.00;1.00
11536;DHT22;5824;49.336;8.652;2023-06-14T01:54:02;21.00;1.00
11536;DHT22;5824;49.336;8.652;2023-06-14T01:56:27;21.00;1.00
11536;DHT22;5824;49.336;8.652;2023-06-14T01:58:53;21.00;1.00
11536;DHT22;5824;49.336;8.652;2023-06-14T02:01:19;20.90;1.00
11536;DHT22;5824;49.336;8.652;2023-06-14T02:03:47;20.90;1.00
11536;DHT22;5824;49.336;8.652;2023-06-14T02:06:13;20.90;1.00
11536;DHT22;5824;49.336;8.652;2023-06-14T02:08:39;20.90;1.00
11536;DHT22;5824;49.336;8.652;2023-06-14T02:11:05;20.90;1.00
11536;DHT22;5824;49.336;8.652;2023-06-14T02:13:30;20.90;1.00
11536;DHT22;5824;49.336;8.652;2023-06-14T02:15:56;20.90;1.00
11536;DHT22;5824;49.336;8.652;2023-06-14T02:18:23;20.90;1.00
11536;DHT22;5824;49.336;8.652;2023-06-14T02:20:48;20.80;1.00
11536;DHT22;5824;49.336;8.652;2023-06-14T02:23:14;20.80;1.00
11536;DHT22;5824;49.336;8.652;2023-06-14T02:25:40;20.70;1.00
11536;DHT22;5824;49.336;8.652;2023-06-14T02:28:05;20.70;1.00
11536;DHT22;5824;49.336;8.652;2023-06-14T02:30:31;20.70;1.00
11536;DHT22;5824;49.336;8.652;2023-06-14T02:32:57;20.70;1.00
11536;DHT22;5824;49.336;8.652;2023-06-14T02:35:22;20.70;1.00
11536;DHT22;5824;49.336;8.652;2023-06-14T02:37:52;20.60;1.00
11536;DHT22;5824;49.336;8.652;2023-06-14T02:40:18;20.60;1.00
11536;DHT22;5824;49.336;8.652;2023-06-14T02:42:44;20.60;1.00
11536;DHT22;5824;49.336;8.652;2023-06-14T02:45:09;20.60;1.00
11536;DHT22;5824;49.336;8.652;2023-06-14T02:47:35;20.60;1.00
11536;DHT22;5824;49.336;8.652;2023-06-14T02:50:00;20.50;1.00
11536;DHT22;5824;49.336;8.652;2023-06-14T02:52:26;20.50;1.00
11536;DHT22;5824;49.336;8.652;2023-06-14T02:54:51;20.50;1.00
11536;DHT22;5824;49.336;8.652;2023-06-14T02:57:17;20.40;1.00
11536;DHT22;5824;49.336;8.652;2023-06-14T02:59:43;20.40;1.00
11536;DHT22;5824;49.336;8.652;2023-06-14T03:02:08;20.30;1.00
11536;DHT22;5824;49.336;8.652;2023-06-14T03:04:34;20.20;1.00
11536;DHT22;5824;49.336;8.652;2023-06-14T03:07:02;20.20;1.00
11536;DHT22;5824;49.336;8.652;2023-06-14T03:09:37;20.20;1.00
11536;DHT22;5824;49.336;8.652;2023-06-14T03:12:06;18.70;1.00
11536;DHT22;5824;49.336;8.652;2023-06-14T03:14:32;20.00;1.00
11536;DHT22;5824;49.336;8.652;2023-06-14T03:16:58;19.90;1.00
11536;DHT22;5824;49.336;8.652;2023-06-14T03:19:24;19.70;1.00
11536;DHT22;5824;49.336;8.652;2023-06-14T03:21:51;19.50;1.00
11536;DHT22;5824;49.336;8.652;2023-06-14T03:24:17;19.30;1.00
11536;DHT22;5824;49.336;8.652;2023-06-14T03:26:43;19.20;1.00
11536;DHT22;5824;49.336;8.652;2023-06-14T03:29:08;19.00;1.00
11536;DHT22;5824;49.336;8.652;2023-06-14T03:31:34;19.00;1.00
11536;DHT22;5824;49.336;8.652;2023-06-14T03:34:01;19.60;1.00
11536;DHT22;5824;49.336;8.652;2023-06-14T03:36:26;19.60;1.00
11536;DHT22;5824;49.336;8.652;2023-06-14T03:38:53;22.80;1.00
11536;DHT22;5824;49.336;8.652;2023-06-14T03:41:19;20.00;1.00
11536;DHT22;5824;49.336;8.652;2023-06-14T03:43:45;20.00;1.00
11536;DHT22;5824;49.336;8.652;2023-06-14T03:46:10;20.20;1.00
11536;DHT22;5824;49.336;8.652;2023-06-14T03:48:36;20.20;1.00
11536;DHT22;5824;49.336;8.652;2023-06-14T03:51:01;20.10;1.00
11536;DHT22;5824;49.336;8.652;2023-06-14T03:53:27;20.00;1.00
11536;DHT22;5824;49.336;8.652;2023-06-14T03:55:54;19.90;1.00
11536;DHT22;5824;49.336;8.652;2023-06-14T03:58:20;19.80;1.00
11536;DHT22;5824;49.336;8.652;2023-06-14T04:00:46;19.80;1.00
11536;DHT22;5824;49.336;8.652;2023-06-14T04:03:12;19.70;1.00
11536;DHT22;5824;49.336;8.652;2023-06-14T04:05:41;19.60;1.00
11536;DHT22;5824;49.336;8.652;2023-06-14T04:08:14;19.60;1.00
11536;DHT22;5824;49.336;8.652;2023-06-14T04:10:40;19.50;1.00
11536;DHT22;5824;49.336;8.652;2023-06-14T04:13:06;19.50;1.00
11536;DHT22;5824;49.336;8.652;2023-06-14T04:15:32;19.40;1.00
11536;DHT22;5824;49.336;8.652;2023-06-14T04:17:58;19.40;1.00
11536;DHT22;5824;49.336;8.652;2023-06-14T04:20:24;19.40;1.00
11536;DHT22;5824;49.336;8.652;2023-06-14T04:22:50;19.30;1.00
11536;DHT22;5824;49.336;8.652;2023-06-14T04:25:16;19.30;1.00
11536;DHT22;5824;49.336;8.652;2023-06-14T04:27:42;19.10;1.00
11536;DHT22;5824;49.336;8.652;2023-06-14T04:30:09;19.00;1.00
11536;DHT22;5824;49.336;8.652;2023-06-14T04:32:34;19.00;1.00
11536;DHT22;5824;49.336;8.652;2023-06-14T04:35:07;18.90;1.00
11536;DHT22;5824;49.336;8.652;2023-06-14T04:37:32;18.90;1.00
11536;DHT22;5824;49.336;8.652;2023-06-14T04:39:58;18.80;1.00
11536;DHT22;5824;49.336;8.652;2023-06-14T04:42:24;18.70;1.00
11536;DHT22;5824;49.336;8.652;2023-06-14T04:44:56;18.50;1.00
11536;DHT22;5824;49.336;8.652;2023-06-14T04:47:23;18.60;1.00
11536;DHT22;5824;49.336;8.652;2023-06-14T04:49:50;18.70;1.00
11536;DHT22;5824;49.336;8.652;2023-06-14T04:52:18;18.60;1.00
11536;DHT22;5824;49.336;8.652;2023-06-14T04:54:46;18.50;1.00
11536;DHT22;5824;49.336;8.652;2023-06-14T04:57:12;18.50;1.00
11536;DHT22;5824;49.336;8.652;2023-06-14T04:59:39;18.50;1.00
11536;DHT22;5824;49.336;8.652;2023-06-14T05:02:05;18.50;1.00
11536;DHT22;5824;49.336;8.652;2023-06-14T05:04:32;18.50;1.00
11536;DHT22;5824;49.336;8.652;2023-06-14T05:06:57;18.50;1.00
11536;DHT22;5824;49.336;8.652;2023-06-14T05:09:23;18.40;1.00
11536;DHT22;5824;49.336;8.652;2023-06-14T05:11:49;18.50;1.00
11536;DHT22;5824;49.336;8.652;2023-06-14T05:14:15;18.50;1.00
11536;DHT22;5824;49.336;8.652;2023-06-14T05:16:41;19.00;1.00
11536;DHT22;5824;49.336;8.652;2023-06-14T05:19:07;18.50;1.00
11536;DHT22;5824;49.336;8.652;2023-06-14T05:21:32;18.50;1.00
11536;DHT22;5824;49.336;8.652;2023-06-14T05:24:00;18.60;1.00
11536;DHT22;5824;49.336;8.652;2023-06-14T05:26:26;18.60;1.00
11536;DHT22;5824;49.336;8.652;2023-06-14T05:28:56;18.70;1.00
11536;DHT22;5824;49.336;8.652;2023-06-14T05:31:22;18.70;1.00
11536;DHT22;5824;49.336;8.652;2023-06-14T05:33:49;18.70;1.00
11536;DHT22;5824;49.336;8.652;2023-06-14T05:36:15;18.70;1.00
11536;DHT22;5824;49.336;8.652;2023-06-14T05:38:40;18.80;1.00
11536;DHT22;5824;49.336;8.652;2023-06-14T05:41:06;18.80;1.00
11536;DHT22;5824;49.336;8.652;2023-06-14T05:43:31;18.90;1.00
11536;DHT22;5824;49.336;8.652;2023-06-14T05:45:57;19.00;1.00
11536;DHT22;5824;49.336;8.652;2023-06-14T05:48:22;19.00;1.00
11536;DHT22;5824;49.336;8.652;2023-06-14T05:50:48;19.10;1.00
11536;DHT22;5824;49.336;8.652;2023-06-14T05:53:13;19.00;1.00
11536;DHT22;5824;49.336;8.652;2023-06-14T05:55:39;18.90;1.00
11536;DHT22;5824;49.336;8.652;2023-06-14T05:58:04;19.10;1.00
11536;DHT22;5824;49.336;8.652;2023-06-14T06:00:30;19.20;1.00
11536;DHT22;5824;49.336;8.652;2023-06-14T06:02:55;19.30;1.00
11536;DHT22;5824;49.336;8.652;2023-06-14T06:05:23;19.40;1.00
11536;DHT22;5824;49.336;8.652;2023-06-14T06:07:48;19.70;1.00
11536;DHT22;5824;49.336;8.652;2023-06-14T06:12:41;19.70;1.00
11536;DHT22;5824;49.336;8.652;2023-06-14T06:15:07;19.80;1.00
11536;DHT22;5824;49.336;8.652;2023-06-14T06:17:37;19.90;1.00
11536;DHT22;5824;49.336;8.652;2023-06-14T06:20:03;19.90;1.00
11536;DHT22;5824;49.336;8.652;2023-06-14T06:22:30;20.00;1.00
11536;DHT22;5824;49.336;8.652;2023-06-14T06:24:56;20.10;1.00
11536;DHT22;5824;49.336;8.652;2023-06-14T06:27:21;20.10;1.00
11536;DHT22;5824;49.336;8.652;2023-06-14T06:29:47;20.20;1.00
11536;DHT22;5824;49.336;8.652;2023-06-14T06:32:14;20.30;1.00
11536;DHT22;5824;49.336;8.652;2023-06-14T06:34:40;20.50;1.00
11536;DHT22;5824;49.336;8.652;2023-06-14T06:37:05;20.60;1.00
11536;DHT22;5824;49.336;8.652;2023-06-14T06:39:31;20.70;1.00
11536;DHT22;5824;49.336;8.652;2023-06-14T06:41:57;20.70;1.00
11536;DHT22;5824;49.336;8.652;2023-06-14T06:44:23;20.80;1.00
11536;DHT22;5824;49.336;8.652;2023-06-14T06:46:48;20.90;1.00
11536;DHT22;5824;49.336;8.652;2023-06-14T06:49:14;21.10;1.00
11536;DHT22;5824;49.336;8.652;2023-06-14T06:51:43;21.20;1.00
11536;DHT22;5824;49.336;8.652;2023-06-14T06:54:10;21.50;1.00
11536;DHT22;5824;49.336;8.652;2023-06-14T06:56:35;21.20;1.00
11536;DHT22;5824;49.336;8.652;2023-06-14T06:59:01;21.20;1.00
11536;DHT22;5824;49.336;8.652;2023-06-14T07:01:27;21.30;1.00
11536;DHT22;5824;49.336;8.652;2023-06-14T07:03:54;21.40;1.00
11536;DHT22;5824;49.336;8.652;2023-06-14T07:06:20;21.60;1.00
11536;DHT22;5824;49.336;8.652;2023-06-14T07:08:46;21.80;1.00
11536;DHT22;5824;49.336;8.652;2023-06-14T07:11:13;22.00;1.00
11536;DHT22;5824;49.336;8.652;2023-06-14T07:13:39;22.00;1.00
11536;DHT22;5824;49.336;8.652;2023-06-14T07:16:05;22.20;1.00
11536;DHT22;5824;49.336;8.652;2023-06-14T07:18:31;22.20;1.00
11536;DHT22;5824;49.336;8.652;2023-06-14T07:20:56;22.30;1.00
11536;DHT22;5824;49.336;8.652;2023-06-14T07:23:25;22.50;1.00
11536;DHT22;5824;49.336;8.652;2023-06-14T07:25:50;22.60;1.00
11536;DHT22;5824;49.336;8.652;2023-06-14T07:28:17;22.70;1.00
11536;DHT22;5824;49.336;8.652;2023-06-14T07:30:43;22.90;1.00
11536;DHT22;5824;49.336;8.652;2023-06-14T07:33:08;23.10;1.00
11536;DHT22;5824;49.336;8.652;2023-06-14T07:35:34;23.30;1.00
11536;DHT22;5824;49.336;8.652;2023-06-14T07:38:00;23.70;1.00
11536;DHT22;5824;49.336;8.652;2023-06-14T07:40:25;23.60;1.00
11536;DHT22;5824;49.336;8.652;2023-06-14T07:42:50;24.00;1.00
11536;DHT22;5824;49.336;8.652;2023-06-14T07:45:16;24.30;1.00
11536;DHT22;5824;49.336;8.652;2023-06-14T07:47:42;24.70;1.00
11536;DHT22;5824;49.336;8.652;2023-06-14T07:50:08;24.70;1.00
11536;DHT22;5824;49.336;8.652;2023-06-14T07:52:34;24.80;1.00
11536;DHT22;5824;49.336;8.652;2023-06-14T07:54:59;25.10;1.00
11536;DHT22;5824;49.336;8.652;2023-06-14T07:57:25;25.30;1.00
11536;DHT22;5824;49.336;8.652;2023-06-14T07:59:51;25.40;1.00
11536;DHT22;5824;49.336;8.652;2023-06-14T08:02:16;25.40;1.00
11536;DHT22;5824;49.336;8.652;2023-06-14T08:04:43;25.60;1.00
11536;DHT22;5824;49.336;8.652;2023-06-14T08:07:08;25.80;1.00
11536;DHT22;5824;49.336;8.652;2023-06-14T08:09:35;25.90;1.00
11536;DHT22;5824;49.336;8.652;2023-06-14T08:12:03;26.00;1.00
11536;DHT22;5824;49.336;8.652;2023-06-14T08:14:29;26.10;1.00
11536;DHT22;5824;49.336;8.652;2023-06-14T08:16:55;26.30;1.00
11536;DHT22;5824;49.336;8.652;2023-06-14T08:19:20;26.40;1.00
11536;DHT22;5824;49.336;8.652;2023-06-14T08:21:46;26.50;1.00
11536;DHT22;5824;49.336;8.652;2023-06-14T08:24:12;26.80;1.00
11536;DHT22;5824;49.336;8.652;2023-06-14T08:26:38;27.00;1.00
11536;DHT22;5824;49.336;8.652;2023-06-14T08:29:04;27.00;1.00
11536;DHT22;5824;49.336;8.652;2023-06-14T08:31:30;26.90;1.00
11536;DHT22;5824;49.336;8.652;2023-06-14T08:33:57;27.00;1.00
11536;DHT22;5824;49.336;8.652;2023-06-14T08:36:22;26.80;1.00
11536;DHT22;5824;49.336;8.652;2023-06-14T08:38:48;26.70;1.00
11536;DHT22;5824;49.336;8.652;2023-06-14T08:41:21;26.90;1.00
11536;DHT22;5824;49.336;8.652;2023-06-14T08:43:47;27.10;1.00
11536;DHT22;5824;49.336;8.652;2023-06-14T08:46:14;27.00;1.00
11536;DHT22;5824;49.336;8.652;2023-06-14T08:48:49;27.00;1.00
11536;DHT22;5824;49.336;8.652;2023-06-14T08:51:18;27.20;1.00
11536;DHT22;5824;49.336;8.652;2023-06-14T08:53:44;27.70;1.00
11536;DHT22;5824;49.336;8.652;2023-06-14T08:56:11;27.20;1.00
11536;DHT22;5824;49.336;8.652;2023-06-14T08:58:45;27.30;1.00
11536;DHT22;5824;49.336;8.652;2023-06-14T09:01:13;27.20;1.00
11536;DHT22;5824;49.336;8.652;2023-06-14T09:03:41;27.10;1.00
11536;DHT22;5824;49.336;8.652;2023-06-14T09:06:07;27.70;1.00
11536;DHT22;5824;49.336;8.652;2023-06-14T09:08:34;28.00;1.00
11536;DHT22;5824;49.336;8.652;2023-06-14T09:11:01;29.20;1.00
11536;DHT22;5824;49.336;8.652;2023-06-14T09:13:27;29.50;1.00
11536;DHT22;5824;49.336;8.652;2023-06-14T09:15:53;30.00;1.00
11536;DHT22;5824;49.336;8.652;2023-06-14T09:18:19;30.60;1.00
11536;DHT22;5824;49.336;8.652;2023-06-14T09:20:47;31.20;1.00
11536;DHT22;5824;49.336;8.652;2023-06-14T09:23:13;32.30;1.00
11536;DHT22;5824;49.336;8.652;2023-06-14T09:25:46;32.00;1.00
11536;DHT22;5824;49.336;8.652;2023-06-14T09:28:11;32.70;1.00
11536;DHT22;5824;49.336;8.652;2023-06-14T09:30:37;33.80;1.00
11536;DHT22;5824;49.336;8.652;2023-06-14T09:33:03;34.90;1.00
11536;DHT22;5824;49.336;8.652;2023-06-14T09:35:31;35.60;1.00
11536;DHT22;5824;49.336;8.652;2023-06-14T09:37:57;37.20;1.00
11536;DHT22;5824;49.336;8.652;2023-06-14T09:40:22;37.20;1.00
11536;DHT22;5824;49.336;8.652;2023-06-14T09:42:48;38.00;1.00
11536;DHT22;5824;49.336;8.652;2023-06-14T09:45:15;37.80;1.00
11536;DHT22;5824;49.336;8.652;2023-06-14T09:47:47;36.50;1.00
11536;DHT22;5824;49.336;8.652;2023-06-14T09:50:12;36.50;1.00
11536;DHT22;5824;49.336;8.652;2023-06-14T09:52:38;34.80;1.00
11536;DHT22;5824;49.336;8.652;2023-06-14T09:55:12;34.20;1.00
11536;DHT22;5824;49.336;8.652;2023-06-14T09:57:43;34.40;1.00
11536;DHT22;5824;49.336;8.652;2023-06-14T10:00:12;33.60;1.00
11536;DHT22;5824;49.336;8.652;2023-06-14T10:02:39;33.40;1.00
11536;DHT22;5824;49.336;8.652;2023-06-14T10:05:11;34.40;1.00
11536;DHT22;5824;49.336;8.652;2023-06-14T10:07:56;36.30;1.00
11536;DHT22;5824;49.336;8.652;2023-06-14T10:10:24;37.90;1.00
11536;DHT22;5824;49.336;8.652;2023-06-14T10:12:51;39.00;1.00
11536;DHT22;5824;49.336;8.652;2023-06-14T10:15:23;39.00;1.00
11536;DHT22;5824;49.336;8.652;2023-06-14T10:17:57;40.00;1.00
11536;DHT22;5824;49.336;8.652;2023-06-14T10:20:33;40.00;1.00
11536;DHT22;5824;49.336;8.652;2023-06-14T10:23:10;40.10;1.00
11536;DHT22;5824;49.336;8.652;2023-06-14T10:25:37;39.60;1.00
11536;DHT22;5824;49.336;8.652;2023-06-14T10:31:02;40.20;1.00
11536;DHT22;5824;49.336;8.652;2023-06-14T10:33:31;40.10;1.00
11536;DHT22;5824;49.336;8.652;2023-06-14T10:36:08;40.30;1.00
11536;DHT22;5824;49.336;8.652;2023-06-14T10:38:35;41.20;1.00
11536;DHT22;5824;49.336;8.652;2023-06-14T10:41:02;41.30;1.00
11536;DHT22;5824;49.336;8.652;2023-06-14T10:43:28;41.40;1.00
11536;DHT22;5824;49.336;8.652;2023-06-14T10:46:15;40.60;1.00
11536;DHT22;5824;49.336;8.652;2023-06-14T10:48:43;38.90;1.00
11536;DHT22;5824;49.336;8.652;2023-06-14T10:51:19;36.90;1.00
11536;DHT22;5824;49.336;8.652;2023-06-14T10:53:47;35.40;1.00
11536;DHT22;5824;49.336;8.652;2023-06-14T10:56:24;36.40;1.00
11536;DHT22;5824;49.336;8.652;2023-06-14T10:58:52;38.40;1.00
11536;DHT22;5824;49.336;8.652;2023-06-14T11:01:30;39.00;1.00
11536;DHT22;5824;49.336;8.652;2023-06-14T11:04:07;38.40;1.00
11536;DHT22;5824;49.336;8.652;2023-06-14T11:06:45;39.20;1.00
11536;DHT22;5824;49.336;8.652;2023-06-14T11:12:15;37.50;1.00
11536;DHT22;5824;49.336;8.652;2023-06-14T11:14:46;36.80;1.00
11536;DHT22;5824;49.336;8.652;2023-06-14T11:17:12;37.80;1.00
11536;DHT22;5824;49.336;8.652;2023-06-14T11:19:38;38.80;1.00
11536;DHT22;5824;49.336;8.652;2023-06-14T11:22:03;39.90;1.00
11536;DHT22;5824;49.336;8.652;2023-06-14T11:24:29;40.50;1.00
11536;DHT22;5824;49.336;8.652;2023-06-14T11:26:55;40.20;1.00
11536;DHT22;5824;49.336;8.652;2023-06-14T11:29:22;39.80;1.00
11536;DHT22;5824;49.336;8.652;2023-06-14T11:31:47;39.50;1.00
11536;DHT22;5824;49.336;8.652;2023-06-14T11:34:13;38.10;1.00
11536;DHT22;5824;49.336;8.652;2023-06-14T11:36:39;36.30;1.00
11536;DHT22;5824;49.336;8.652;2023-06-14T11:39:07;36.50;1.00
11536;DHT22;5824;49.336;8.652;2023-06-14T11:41:37;38.60;1.00
11536;DHT22;5824;49.336;8.652;2023-06-14T11:44:03;40.40;1.00
11536;DHT22;5824;49.336;8.652;2023-06-14T11:46:29;41.30;1.00
11536;DHT22;5824;49.336;8.652;2023-06-14T11:48:54;40.80;1.00
11536;DHT22;5824;49.336;8.652;2023-06-14T11:51:20;40.30;1.00
11536;DHT22;5824;49.336;8.652;2023-06-14T11:53:46;41.00;1.00
11536;DHT22;5824;49.336;8.652;2023-06-14T11:56:12;41.70;1.00
11536;DHT22;5824;49.336;8.652;2023-06-14T11:58:38;41.70;1.00
11536;DHT22;5824;49.336;8.652;2023-06-14T12:01:03;40.20;1.00
11536;DHT22;5824;49.336;8.652;2023-06-14T12:03:29;38.50;1.00
11536;DHT22;5824;49.336;8.652;2023-06-14T12:06:07;37.80;1.00
11536;DHT22;5824;49.336;8.652;2023-06-14T12:08:35;39.20;1.00
11536;DHT22;5824;49.336;8.652;2023-06-14T12:11:10;39.50;1.00
11536;DHT22;5824;49.336;8.652;2023-06-14T12:13:38;38.50;1.00
11536;DHT22;5824;49.336;8.652;2023-06-14T12:16:10;37.50;1.00
11536;DHT22;5824;49.336;8.652;2023-06-14T12:18:37;36.70;1.00
11536;DHT22;5824;49.336;8.652;2023-06-14T12:21:04;37.20;1.00
11536;DHT22;5824;49.336;8.652;2023-06-14T12:23:48;38.00;1.00
11536;DHT22;5824;49.336;8.652;2023-06-14T12:26:19;39.30;1.00
11536;DHT22;5824;49.336;8.652;2023-06-14T12:28:45;40.10;1.00
11536;DHT22;5824;49.336;8.652;2023-06-14T12:31:12;40.00;1.00
11536;DHT22;5824;49.336;8.652;2023-06-14T12:33:39;40.20;1.00
11536;DHT22;5824;49.336;8.652;2023-06-14T12:36:07;39.20;1.00
11536;DHT22;5824;49.336;8.652;2023-06-14T12:38:33;37.10;1.00
11536;DHT22;5824;49.336;8.652;2023-06-14T12:40:59;35.10;1.00
11536;DHT22;5824;49.336;8.652;2023-06-14T12:43:25;33.80;1.00
11536;DHT22;5824;49.336;8.652;2023-06-14T12:45:51;33.00;1.00
11536;DHT22;5824;49.336;8.652;2023-06-14T12:48:16;32.70;1.00
11536;DHT22;5824;49.336;8.652;2023-06-14T12:50:42;32.20;1.00
11536;DHT22;5824;49.336;8.652;2023-06-14T12:53:08;32.80;1.00
11536;DHT22;5824;49.336;8.652;2023-06-14T12:55:33;33.80;1.00
11536;DHT22;5824;49.336;8.652;2023-06-14T12:57:59;37.30;1.00
11536;DHT22;5824;49.336;8.652;2023-06-14T13:00:24;37.40;1.00
11536;DHT22;5824;49.336;8.652;2023-06-14T13:07:45;37.50;1.00
11536;DHT22;5824;49.336;8.652;2023-06-14T13:10:11;37.60;1.00
11536;DHT22;5824;49.336;8.652;2023-06-14T13:12:36;37.70;1.00
11536;DHT22;5824;49.336;8.652;2023-06-14T13:15:02;37.90;1.00
11536;DHT22;5824;49.336;8.652;2023-06-14T13:24:46;38.50;1.00
11536;DHT22;5824;49.336;8.652;2023-06-14T13:27:11;36.50;1.00
11536;DHT22;5824;49.336;8.652;2023-06-14T13:29:39;35.00;1.00
11536;DHT22;5824;49.336;8.652;2023-06-14T13:32:05;34.10;1.00
11536;DHT22;5824;49.336;8.652;2023-06-14T13:44:16;35.60;1.00
11536;DHT22;5824;49.336;8.652;2023-06-14T13:46:44;34.80;1.00
11536;DHT22;5824;49.336;8.652;2023-06-14T13:49:10;34.00;1.00
11536;DHT22;5824;49.336;8.652;2023-06-14T13:54:02;32.40;1.00
11536;DHT22;5824;49.336;8.652;2023-06-14T13:58:53;31.10;1.00
11536;DHT22;5824;49.336;8.652;2023-06-14T14:03:47;31.60;1.00
11536;DHT22;5824;49.336;8.652;2023-06-14T14:11:05;33.90;1.00
11536;DHT22;5824;49.336;8.652;2023-06-14T14:18:24;36.70;1.00
11536;DHT22;5824;49.336;8.652;2023-06-14T14:23:15;37.20;1.00
11536;DHT22;5824;49.336;8.652;2023-06-14T14:42:47;31.00;1.00
11536;DHT22;5824;49.336;8.652;2023-06-14T14:45:13;30.90;1.00
11536;DHT22;5824;49.336;8.652;2023-06-14T14:50:05;30.70;1.00
11536;DHT22;5824;49.336;8.652;2023-06-14T14:57:26;32.90;1.00
11536;DHT22;5824;49.336;8.652;2023-06-14T14:59:52;34.60;1.00
11536;DHT22;5824;49.336;8.652;2023-06-14T15:02:17;35.70;1.00
11536;DHT22;5824;49.336;8.652;2023-06-14T15:04:43;36.90;1.00
11536;DHT22;5824;49.336;8.652;2023-06-14T15:12:01;37.80;1.00
11536;DHT22;5824;49.336;8.652;2023-06-14T15:14:26;36.90;1.00
11536;DHT22;5824;49.336;8.652;2023-06-14T15:16:52;35.40;1.00
11536;DHT22;5824;49.336;8.652;2023-06-14T15:21:44;33.20;1.00
11536;DHT22;5824;49.336;8.652;2023-06-14T15:24:09;32.40;1.00
11536;DHT22;5824;49.336;8.652;2023-06-14T15:26:35;31.80;1.00
11536;DHT22;5824;49.336;8.652;2023-06-14T15:29:00;31.00;1.00
11536;DHT22;5824;49.336;8.652;2023-06-14T15:33:54;30.20;1.00
11536;DHT22;5824;49.336;8.652;2023-06-14T15:36:19;30.30;1.00
11536;DHT22;5824;49.336;8.652;2023-06-14T15:38:45;30.30;1.00
11536;DHT22;5824;49.336;8.652;2023-06-14T15:48:28;31.50;1.00
11536;DHT22;5824;49.336;8.652;2023-06-14T15:55:46;32.50;1.00
11536;DHT22;5824;49.336;8.652;2023-06-14T15:58:12;32.50;1.00
11536;DHT22;5824;49.336;8.652;2023-06-14T16:00:37;32.50;1.00
11536;DHT22;5824;49.336;8.652;2023-06-14T16:03:03;32.70;1.00
11536;DHT22;5824;49.336;8.652;2023-06-14T16:05:28;32.20;1.00
11536;DHT22;5824;49.336;8.652;2023-06-14T16:12:46;30.90;1.00
11536;DHT22;5824;49.336;8.652;2023-06-14T16:17:37;29.90;1.00
11536;DHT22;5824;49.336;8.652;2023-06-14T16:20:03;29.50;1.00
11536;DHT22;5824;49.336;8.652;2023-06-14T16:22:29;29.20;1.00
11536;DHT22;5824;49.336;8.652;2023-06-14T16:24:55;28.90;1.00
11536;DHT22;5824;49.336;8.652;2023-06-14T16:27:20;28.70;1.00
11536;DHT22;5824;49.336;8.652;2023-06-14T16:29:46;28.80;1.00
11536;DHT22;5824;49.336;8.652;2023-06-14T16:32:11;28.60;1.00
11536;DHT22;5824;49.336;8.652;2023-06-14T16:34:37;28.50;1.00
11536;DHT22;5824;49.336;8.652;2023-06-14T16:37:02;28.40;1.00
11536;DHT22;5824;49.336;8.652;2023-06-14T16:39:28;28.40;1.00
11536;DHT22;5824;49.336;8.652;2023-06-14T16:41:53;28.60;1.00
11536;DHT22;5824;49.336;8.652;2023-06-14T16:46:45;29.00;1.00
11536;DHT22;5824;49.336;8.652;2023-06-14T16:49:11;29.20;1.00
11536;DHT22;5824;49.336;8.652;2023-06-14T16:51:36;29.40;1.00
11536;DHT22;5824;49.336;8.652;2023-06-14T16:58:56;29.30;1.00
11536;DHT22;5824;49.336;8.652;2023-06-14T17:01:23;29.20;1.00
11536;DHT22;5824;49.336;8.652;2023-06-14T17:03:49;30.80;1.00
11536;DHT22;5824;49.336;8.652;2023-06-14T17:06:15;29.10;1.00
11536;DHT22;5824;49.336;8.652;2023-06-14T17:11:07;28.50;1.00
11536;DHT22;5824;49.336;8.652;2023-06-14T17:13:33;28.30;1.00
11536;DHT22;5824;49.336;8.652;2023-06-14T17:15:59;28.10;1.00
11536;DHT22;5824;49.336;8.652;2023-06-14T17:18:25;28.10;1.00
11536;DHT22;5824;49.336;8.652;2023-06-14T17:25:42;28.00;1.00
11536;DHT22;5824;49.336;8.652;2023-06-14T17:28:08;28.00;1.00
11536;DHT22;5824;49.336;8.652;2023-06-14T17:30:34;28.00;1.00
11536;DHT22;5824;49.336;8.652;2023-06-14T17:37:52;27.80;1.00
11536;DHT22;5824;49.336;8.652;2023-06-14T17:45:09;27.60;1.00
11536;DHT22;5824;49.336;8.652;2023-06-14T17:50:01;27.60;1.00
11536;DHT22;5824;49.336;8.652;2023-06-14T17:54:54;27.60;1.00
11536;DHT22;5824;49.336;8.652;2023-06-14T17:57:20;27.50;1.00
11536;DHT22;5824;49.336;8.652;2023-06-14T17:59:45;27.50;1.00
11536;DHT22;5824;49.336;8.652;2023-06-14T18:04:37;27.50;1.00
11536;DHT22;5824;49.336;8.652;2023-06-14T18:07:03;27.40;1.00
11536;DHT22;5824;49.336;8.652;2023-06-14T18:09:29;27.40;1.00
11536;DHT22;5824;49.336;8.652;2023-06-14T18:11:55;27.30;1.00
11536;DHT22;5824;49.336;8.652;2023-06-14T18:14:26;27.20;1.00
11536;DHT22;5824;49.336;8.652;2023-06-14T18:19:18;27.10;1.00